sensor_id;sensor_type;location;lat;lon;timestamp;P1;durP1;ratioP1;P2;durP2;ratioP2
47804;SDS011;33568;45.286;9.900;2024-01-30T00:03:08;370.30;;;39.67;;
47804;SDS011;33568;45.286;9.900;2024-01-30T00:05:34;484.75;;;43.17;;
47804;SDS011;33568;45.286;9.900;2024-01-30T00:08:00;290.50;;;41.38;;
47804;SDS011;33568;45.286;9.900;2024-01-30T00:10:27;190.80;;;37.42;;
47804;SDS011;33568;45.286;9.900;2024-01-30T00:12:53;403.23;;;41.08;;
47804;SDS011;33568;45.286;9.900;2024-01-30T00:15:20;483.48;;;43.78;;
47804;SDS011;33568;45.286;9.900;2024-01-30T00:17:46;336.92;;;41.83;;
47804;SDS011;33568;45.286;9.900;2024-01-30T00:20:12;564.33;;;46.78;;
47804;SDS011;33568;45.286;9.900;2024-01-30T00:25:05;434.27;;;42.80;;
47804;SDS011;33568;45.286;9.900;2024-01-30T00:27:32;361.92;;;37.60;;
47804;SDS011;33568;45.286;9.900;2024-01-30T00:29:58;288.40;;;37.63;;
47804;SDS011;33568;45.286;9.900;2024-01-30T00:34:51;335.83;;;40.10;;
47804;SDS011;33568;45.286;9.900;2024-01-30T00:37:17;328.17;;;38.88;;
47804;SDS011;33568;45.286;9.900;2024-01-30T00:39:44;374.30;;;39.10;;
47804;SDS011;33568;45.286;9.900;2024-01-30T00:42:10;421.75;;;38.60;;
47804;SDS011;33568;45.286;9.900;2024-01-30T00:44:37;464.70;;;40.75;;
47804;SDS011;33568;45.286;9.900;2024-01-30T00:47:04;279.67;;;35.28;;
47804;SDS011;33568;45.286;9.900;2024-01-30T00:49:31;286.65;;;38.83;;
47804;SDS011;33568;45.286;9.900;2024-01-30T00:51:57;351.98;;;38.53;;
47804;SDS011;33568;45.286;9.900;2024-01-30T00:54:24;350.58;;;36.97;;
47804;SDS011;33568;45.286;9.900;2024-01-30T00:59:17;301.75;;;34.13;;
47804;SDS011;33568;45.286;9.900;2024-01-30T01:01:43;289.85;;;34.25;;
47804;SDS011;33568;45.286;9.900;2024-01-30T01:04:09;403.50;;;37.03;;
47804;SDS011;33568;45.286;9.900;2024-01-30T01:06:36;322.88;;;34.10;;
47804;SDS011;33568;45.286;9.900;2024-01-30T01:09:02;261.05;;;34.78;;
47804;SDS011;33568;45.286;9.900;2024-01-30T01:11:29;210.73;;;34.22;;
47804;SDS011;33568;45.286;9.900;2024-01-30T01:13:55;353.10;;;35.67;;
47804;SDS011;33568;45.286;9.900;2024-01-30T01:16:22;296.20;;;33.85;;
47804;SDS011;33568;45.286;9.900;2024-01-30T01:18:48;292.85;;;30.13;;
47804;SDS011;33568;45.286;9.900;2024-01-30T01:21:15;226.95;;;34.22;;
47804;SDS011;33568;45.286;9.900;2024-01-30T01:23:42;281.73;;;30.42;;
47804;SDS011;33568;45.286;9.900;2024-01-30T01:26:08;319.83;;;34.22;;
47804;SDS011;33568;45.286;9.900;2024-01-30T01:28:35;400.38;;;36.35;;
47804;SDS011;33568;45.286;9.900;2024-01-30T01:31:02;370.17;;;33.95;;
47804;SDS011;33568;45.286;9.900;2024-01-30T01:33:34;338.17;;;34.80;;
47804;SDS011;33568;45.286;9.900;2024-01-30T01:36:02;215.27;;;36.92;;
47804;SDS011;33568;45.286;9.900;2024-01-30T01:38:29;420.35;;;39.60;;
47804;SDS011;33568;45.286;9.900;2024-01-30T01:43:22;283.13;;;36.83;;
47804;SDS011;33568;45.286;9.900;2024-01-30T01:45:48;355.40;;;38.22;;
47804;SDS011;33568;45.286;9.900;2024-01-30T01:48:15;352.85;;;39.05;;
47804;SDS011;33568;45.286;9.900;2024-01-30T01:50:42;359.55;;;38.35;;
47804;SDS011;33568;45.286;9.900;2024-01-30T01:53:09;370.27;;;40.17;;
47804;SDS011;33568;45.286;9.900;2024-01-30T01:55:36;334.85;;;36.53;;
47804;SDS011;33568;45.286;9.900;2024-01-30T01:58:03;301.77;;;36.60;;
47804;SDS011;33568;45.286;9.900;2024-01-30T02:00:30;315.23;;;38.35;;
47804;SDS011;33568;45.286;9.900;2024-01-30T02:02:57;137.68;;;35.13;;
47804;SDS011;33568;45.286;9.900;2024-01-30T02:05:23;191.88;;;36.45;;
47804;SDS011;33568;45.286;9.900;2024-01-30T02:07:51;153.60;;;32.92;;
47804;SDS011;33568;45.286;9.900;2024-01-30T02:10:17;349.83;;;34.90;;
47804;SDS011;33568;45.286;9.900;2024-01-30T02:15:13;291.90;;;35.30;;
47804;SDS011;33568;45.286;9.900;2024-01-30T02:17:39;293.02;;;32.40;;
47804;SDS011;33568;45.286;9.900;2024-01-30T02:22:33;216.15;;;31.25;;
47804;SDS011;33568;45.286;9.900;2024-01-30T02:25:01;297.38;;;34.17;;
47804;SDS011;33568;45.286;9.900;2024-01-30T02:27:28;146.85;;;32.33;;
47804;SDS011;33568;45.286;9.900;2024-01-30T02:29:54;387.95;;;39.38;;
47804;SDS011;33568;45.286;9.900;2024-01-30T02:32:20;180.93;;;32.58;;
47804;SDS011;33568;45.286;9.900;2024-01-30T02:34:47;272.60;;;33.92;;
47804;SDS011;33568;45.286;9.900;2024-01-30T02:37:13;189.50;;;34.03;;
47804;SDS011;33568;45.286;9.900;2024-01-30T02:39:40;173.80;;;33.55;;
47804;SDS011;33568;45.286;9.900;2024-01-30T02:42:06;318.55;;;32.75;;
47804;SDS011;33568;45.286;9.900;2024-01-30T02:44:32;198.30;;;34.05;;
47804;SDS011;33568;45.286;9.900;2024-01-30T02:46:59;208.82;;;32.00;;
47804;SDS011;33568;45.286;9.900;2024-01-30T02:49:25;267.77;;;32.75;;
47804;SDS011;33568;45.286;9.900;2024-01-30T02:51:53;174.80;;;30.40;;
47804;SDS011;33568;45.286;9.900;2024-01-30T02:54:19;341.27;;;33.42;;
47804;SDS011;33568;45.286;9.900;2024-01-30T02:56:46;210.05;;;32.35;;
47804;SDS011;33568;45.286;9.900;2024-01-30T02:59:14;188.60;;;30.73;;
47804;SDS011;33568;45.286;9.900;2024-01-30T03:01:43;242.55;;;29.65;;
47804;SDS011;33568;45.286;9.900;2024-01-30T03:04:10;315.00;;;26.50;;
47804;SDS011;33568;45.286;9.900;2024-01-30T03:06:37;149.90;;;27.15;;
47804;SDS011;33568;45.286;9.900;2024-01-30T03:09:03;161.43;;;25.80;;
47804;SDS011;33568;45.286;9.900;2024-01-30T03:11:30;265.40;;;27.48;;
47804;SDS011;33568;45.286;9.900;2024-01-30T03:13:57;154.77;;;25.27;;
47804;SDS011;33568;45.286;9.900;2024-01-30T03:18:50;191.82;;;25.02;;
47804;SDS011;33568;45.286;9.900;2024-01-30T03:21:16;154.70;;;25.27;;
47804;SDS011;33568;45.286;9.900;2024-01-30T03:23:43;169.70;;;26.38;;
47804;SDS011;33568;45.286;9.900;2024-01-30T03:26:09;129.95;;;25.77;;
47804;SDS011;33568;45.286;9.900;2024-01-30T03:28:36;188.07;;;29.52;;
47804;SDS011;33568;45.286;9.900;2024-01-30T03:31:03;194.35;;;28.33;;
47804;SDS011;33568;45.286;9.900;2024-01-30T03:35:56;221.07;;;27.92;;
47804;SDS011;33568;45.286;9.900;2024-01-30T03:38:22;187.68;;;30.70;;
47804;SDS011;33568;45.286;9.900;2024-01-30T03:43:15;298.70;;;28.45;;
47804;SDS011;33568;45.286;9.900;2024-01-30T03:48:07;182.82;;;29.00;;
47804;SDS011;33568;45.286;9.900;2024-01-30T03:50:34;166.15;;;29.00;;
47804;SDS011;33568;45.286;9.900;2024-01-30T03:53:00;207.60;;;30.42;;
47804;SDS011;33568;45.286;9.900;2024-01-30T03:57:53;105.90;;;26.98;;
47804;SDS011;33568;45.286;9.900;2024-01-30T04:00:19;149.00;;;30.15;;
47804;SDS011;33568;45.286;9.900;2024-01-30T04:02:45;171.02;;;30.50;;
47804;SDS011;33568;45.286;9.900;2024-01-30T04:05:12;200.38;;;30.08;;
47804;SDS011;33568;45.286;9.900;2024-01-30T04:10:05;166.02;;;30.00;;
47804;SDS011;33568;45.286;9.900;2024-01-30T04:12:32;106.85;;;28.45;;
47804;SDS011;33568;45.286;9.900;2024-01-30T04:14:58;134.55;;;32.92;;
47804;SDS011;33568;45.286;9.900;2024-01-30T04:17:24;143.98;;;30.45;;
47804;SDS011;33568;45.286;9.900;2024-01-30T04:22:17;95.47;;;28.27;;
47804;SDS011;33568;45.286;9.900;2024-01-30T04:24:43;180.20;;;29.63;;
47804;SDS011;33568;45.286;9.900;2024-01-30T04:27:10;256.23;;;29.75;;
47804;SDS011;33568;45.286;9.900;2024-01-30T04:29:36;208.05;;;30.00;;
47804;SDS011;33568;45.286;9.900;2024-01-30T04:32:03;152.70;;;29.02;;
47804;SDS011;33568;45.286;9.900;2024-01-30T04:34:29;117.53;;;29.38;;
47804;SDS011;33568;45.286;9.900;2024-01-30T04:39:22;325.23;;;26.75;;
47804;SDS011;33568;45.286;9.900;2024-01-30T04:41:49;126.18;;;26.63;;
47804;SDS011;33568;45.286;9.900;2024-01-30T04:44:15;239.43;;;28.05;;
47804;SDS011;33568;45.286;9.900;2024-01-30T04:46:41;119.70;;;26.90;;
47804;SDS011;33568;45.286;9.900;2024-01-30T04:49:08;82.50;;;25.27;;
47804;SDS011;33568;45.286;9.900;2024-01-30T04:51:34;128.07;;;26.80;;
47804;SDS011;33568;45.286;9.900;2024-01-30T04:54:01;56.63;;;27.73;;
47804;SDS011;33568;45.286;9.900;2024-01-30T04:56:27;92.03;;;27.17;;
47804;SDS011;33568;45.286;9.900;2024-01-30T04:58:54;77.88;;;26.63;;
47804;SDS011;33568;45.286;9.900;2024-01-30T05:01:20;133.15;;;28.73;;
47804;SDS011;33568;45.286;9.900;2024-01-30T05:03:46;208.32;;;28.80;;
47804;SDS011;33568;45.286;9.900;2024-01-30T05:06:13;205.00;;;28.75;;
47804;SDS011;33568;45.286;9.900;2024-01-30T05:11:16;254.25;;;27.92;;
47804;SDS011;33568;45.286;9.900;2024-01-30T05:13:42;268.15;;;28.77;;
47804;SDS011;33568;45.286;9.900;2024-01-30T05:16:09;207.60;;;28.23;;
47804;SDS011;33568;45.286;9.900;2024-01-30T05:18:35;148.07;;;27.20;;
47804;SDS011;33568;45.286;9.900;2024-01-30T05:23:29;239.00;;;27.95;;
47804;SDS011;33568;45.286;9.900;2024-01-30T05:25:55;192.73;;;26.58;;
47804;SDS011;33568;45.286;9.900;2024-01-30T05:28:22;359.85;;;30.48;;
47804;SDS011;33568;45.286;9.900;2024-01-30T05:30:48;301.17;;;29.52;;
47804;SDS011;33568;45.286;9.900;2024-01-30T05:35:41;303.08;;;29.17;;
47804;SDS011;33568;45.286;9.900;2024-01-30T05:40:34;152.68;;;25.35;;
47804;SDS011;33568;45.286;9.900;2024-01-30T05:43:01;296.50;;;29.10;;
47804;SDS011;33568;45.286;9.900;2024-01-30T05:45:28;281.75;;;28.17;;
47804;SDS011;33568;45.286;9.900;2024-01-30T05:50:21;351.45;;;29.38;;
47804;SDS011;33568;45.286;9.900;2024-01-30T05:52:49;164.13;;;24.35;;
47804;SDS011;33568;45.286;9.900;2024-01-30T05:55:15;334.08;;;27.65;;
47804;SDS011;33568;45.286;9.900;2024-01-30T05:57:41;149.48;;;25.08;;
47804;SDS011;33568;45.286;9.900;2024-01-30T06:00:08;176.70;;;27.33;;
47804;SDS011;33568;45.286;9.900;2024-01-30T06:05:01;131.20;;;25.23;;
47804;SDS011;33568;45.286;9.900;2024-01-30T06:07:28;188.65;;;26.67;;
47804;SDS011;33568;45.286;9.900;2024-01-30T06:12:20;165.07;;;25.15;;
47804;SDS011;33568;45.286;9.900;2024-01-30T06:14:47;121.68;;;24.02;;
47804;SDS011;33568;45.286;9.900;2024-01-30T06:17:13;99.20;;;24.70;;
47804;SDS011;33568;45.286;9.900;2024-01-30T06:19:40;259.65;;;27.83;;
47804;SDS011;33568;45.286;9.900;2024-01-30T06:22:06;271.38;;;26.05;;
47804;SDS011;33568;45.286;9.900;2024-01-30T06:24:33;240.35;;;26.23;;
47804;SDS011;33568;45.286;9.900;2024-01-30T06:27:00;220.18;;;25.58;;
47804;SDS011;33568;45.286;9.900;2024-01-30T06:29:27;107.13;;;24.73;;
47804;SDS011;33568;45.286;9.900;2024-01-30T06:34:19;171.88;;;24.88;;
47804;SDS011;33568;45.286;9.900;2024-01-30T06:39:12;89.40;;;24.08;;
47804;SDS011;33568;45.286;9.900;2024-01-30T06:41:39;172.45;;;26.50;;
47804;SDS011;33568;45.286;9.900;2024-01-30T06:44:05;245.88;;;27.90;;
47804;SDS011;33568;45.286;9.900;2024-01-30T06:46:33;148.23;;;24.60;;
47804;SDS011;33568;45.286;9.900;2024-01-30T06:49:00;274.80;;;27.10;;
47804;SDS011;33568;45.286;9.900;2024-01-30T06:51:27;255.60;;;27.00;;
47804;SDS011;33568;45.286;9.900;2024-01-30T06:53:54;127.20;;;23.50;;
47804;SDS011;33568;45.286;9.900;2024-01-30T06:56:20;144.07;;;26.40;;
47804;SDS011;33568;45.286;9.900;2024-01-30T07:01:14;172.20;;;26.65;;
47804;SDS011;33568;45.286;9.900;2024-01-30T07:03:41;177.35;;;25.67;;
47804;SDS011;33568;45.286;9.900;2024-01-30T07:06:08;138.48;;;24.70;;
47804;SDS011;33568;45.286;9.900;2024-01-30T07:08:36;182.88;;;25.40;;
47804;SDS011;33568;45.286;9.900;2024-01-30T07:11:06;203.57;;;25.67;;
47804;SDS011;33568;45.286;9.900;2024-01-30T07:13:34;126.30;;;24.02;;
47804;SDS011;33568;45.286;9.900;2024-01-30T07:16:00;99.60;;;24.48;;
47804;SDS011;33568;45.286;9.900;2024-01-30T07:20:53;139.48;;;22.90;;
47804;SDS011;33568;45.286;9.900;2024-01-30T07:23:19;281.70;;;26.33;;
47804;SDS011;33568;45.286;9.900;2024-01-30T07:25:46;256.83;;;26.63;;
47804;SDS011;33568;45.286;9.900;2024-01-30T07:28:15;112.82;;;26.35;;
47804;SDS011;33568;45.286;9.900;2024-01-30T07:30:45;137.60;;;26.88;;
47804;SDS011;33568;45.286;9.900;2024-01-30T07:35:37;92.15;;;24.92;;
47804;SDS011;33568;45.286;9.900;2024-01-30T07:38:04;123.97;;;25.45;;
47804;SDS011;33568;45.286;9.900;2024-01-30T07:40:30;241.13;;;27.10;;
47804;SDS011;33568;45.286;9.900;2024-01-30T07:42:58;209.85;;;25.35;;
47804;SDS011;33568;45.286;9.900;2024-01-30T07:45:26;132.55;;;27.90;;
47804;SDS011;33568;45.286;9.900;2024-01-30T07:47:58;140.32;;;30.98;;
47804;SDS011;33568;45.286;9.900;2024-01-30T07:50:27;128.52;;;29.40;;
47804;SDS011;33568;45.286;9.900;2024-01-30T07:52:59;191.27;;;28.67;;
47804;SDS011;33568;45.286;9.900;2024-01-30T07:55:26;93.47;;;27.30;;
47804;SDS011;33568;45.286;9.900;2024-01-30T07:57:57;146.02;;;28.50;;
47804;SDS011;33568;45.286;9.900;2024-01-30T08:00:24;207.93;;;28.58;;
47804;SDS011;33568;45.286;9.900;2024-01-30T08:05:22;148.00;;;27.77;;
47804;SDS011;33568;45.286;9.900;2024-01-30T08:07:49;159.70;;;27.98;;
47804;SDS011;33568;45.286;9.900;2024-01-30T08:10:16;135.10;;;31.02;;
47804;SDS011;33568;45.286;9.900;2024-01-30T08:12:45;135.07;;;30.05;;
47804;SDS011;33568;45.286;9.900;2024-01-30T08:17:41;193.52;;;29.10;;
47804;SDS011;33568;45.286;9.900;2024-01-30T08:20:07;259.92;;;33.70;;
47804;SDS011;33568;45.286;9.900;2024-01-30T08:22:37;164.70;;;31.05;;
47804;SDS011;33568;45.286;9.900;2024-01-30T08:25:06;345.60;;;35.90;;
47804;SDS011;33568;45.286;9.900;2024-01-30T08:27:33;180.93;;;38.20;;
47804;SDS011;33568;45.286;9.900;2024-01-30T08:30:01;185.75;;;38.53;;
47804;SDS011;33568;45.286;9.900;2024-01-30T08:32:29;253.70;;;34.08;;
47804;SDS011;33568;45.286;9.900;2024-01-30T08:34:55;112.85;;;33.03;;
47804;SDS011;33568;45.286;9.900;2024-01-30T08:37:22;202.80;;;38.67;;
47804;SDS011;33568;45.286;9.900;2024-01-30T08:42:15;135.43;;;35.55;;
47804;SDS011;33568;45.286;9.900;2024-01-30T08:44:44;136.05;;;32.88;;
47804;SDS011;33568;45.286;9.900;2024-01-30T08:47:10;74.88;;;30.95;;
47804;SDS011;33568;45.286;9.900;2024-01-30T08:49:37;112.15;;;30.55;;
47804;SDS011;33568;45.286;9.900;2024-01-30T08:52:03;115.97;;;31.55;;
47804;SDS011;33568;45.286;9.900;2024-01-30T08:56:56;161.70;;;28.23;;
47804;SDS011;33568;45.286;9.900;2024-01-30T08:59:24;97.57;;;27.25;;
47804;SDS011;33568;45.286;9.900;2024-01-30T09:04:20;73.43;;;29.35;;
47804;SDS011;33568;45.286;9.900;2024-01-30T09:06:47;51.30;;;29.23;;
47804;SDS011;33568;45.286;9.900;2024-01-30T09:09:14;70.50;;;31.02;;
47804;SDS011;33568;45.286;9.900;2024-01-30T09:11:41;58.25;;;31.67;;
47804;SDS011;33568;45.286;9.900;2024-01-30T09:14:09;49.42;;;30.02;;
47804;SDS011;33568;45.286;9.900;2024-01-30T09:16:35;44.03;;;29.52;;
47804;SDS011;33568;45.286;9.900;2024-01-30T09:19:02;41.28;;;30.15;;
47804;SDS011;33568;45.286;9.900;2024-01-30T09:21:30;75.63;;;32.55;;
47804;SDS011;33568;45.286;9.900;2024-01-30T09:24:01;79.95;;;28.98;;
47804;SDS011;33568;45.286;9.900;2024-01-30T09:26:29;58.00;;;32.70;;
47804;SDS011;33568;45.286;9.900;2024-01-30T09:28:56;87.68;;;33.00;;
47804;SDS011;33568;45.286;9.900;2024-01-30T09:31:22;58.22;;;31.50;;
47804;SDS011;33568;45.286;9.900;2024-01-30T09:36:16;71.40;;;34.40;;
47804;SDS011;33568;45.286;9.900;2024-01-30T09:38:45;109.50;;;38.25;;
47804;SDS011;33568;45.286;9.900;2024-01-30T09:41:12;104.50;;;35.45;;
47804;SDS011;33568;45.286;9.900;2024-01-30T09:43:39;101.10;;;35.92;;
47804;SDS011;33568;45.286;9.900;2024-01-30T09:46:10;62.00;;;36.15;;
47804;SDS011;33568;45.286;9.900;2024-01-30T09:48:40;116.72;;;37.90;;
47804;SDS011;33568;45.286;9.900;2024-01-30T09:51:09;84.53;;;35.95;;
47804;SDS011;33568;45.286;9.900;2024-01-30T09:53:36;185.68;;;36.05;;
47804;SDS011;33568;45.286;9.900;2024-01-30T09:56:03;76.20;;;38.08;;
47804;SDS011;33568;45.286;9.900;2024-01-30T09:58:31;82.97;;;38.88;;
47804;SDS011;33568;45.286;9.900;2024-01-30T10:00:58;76.00;;;37.97;;
47804;SDS011;33568;45.286;9.900;2024-01-30T10:03:25;140.82;;;40.22;;
47804;SDS011;33568;45.286;9.900;2024-01-30T10:05:52;113.68;;;40.50;;
47804;SDS011;33568;45.286;9.900;2024-01-30T10:08:20;71.57;;;37.97;;
47804;SDS011;33568;45.286;9.900;2024-01-30T10:13:13;72.95;;;36.95;;
47804;SDS011;33568;45.286;9.900;2024-01-30T10:15:40;96.82;;;38.78;;
47804;SDS011;33568;45.286;9.900;2024-01-30T10:18:08;127.35;;;41.97;;
47804;SDS011;33568;45.286;9.900;2024-01-30T10:20:36;112.53;;;44.05;;
47804;SDS011;33568;45.286;9.900;2024-01-30T10:23:03;75.05;;;43.67;;
47804;SDS011;33568;45.286;9.900;2024-01-30T10:27:59;69.50;;;41.78;;
47804;SDS011;33568;45.286;9.900;2024-01-30T10:32:52;90.78;;;45.78;;
47804;SDS011;33568;45.286;9.900;2024-01-30T10:35:19;108.95;;;46.53;;
47804;SDS011;33568;45.286;9.900;2024-01-30T10:37:48;81.60;;;46.45;;
47804;SDS011;33568;45.286;9.900;2024-01-30T10:40:15;79.45;;;49.50;;
47804;SDS011;33568;45.286;9.900;2024-01-30T10:42:42;76.57;;;48.50;;
47804;SDS011;33568;45.286;9.900;2024-01-30T10:45:10;77.03;;;47.72;;
47804;SDS011;33568;45.286;9.900;2024-01-30T10:47:39;116.75;;;47.50;;
47804;SDS011;33568;45.286;9.900;2024-01-30T10:50:09;73.90;;;48.15;;
47804;SDS011;33568;45.286;9.900;2024-01-30T10:52:37;106.40;;;46.80;;
47804;SDS011;33568;45.286;9.900;2024-01-30T10:55:04;91.45;;;45.95;;
47804;SDS011;33568;45.286;9.900;2024-01-30T10:57:34;95.60;;;46.15;;
47804;SDS011;33568;45.286;9.900;2024-01-30T11:00:08;93.80;;;46.97;;
47804;SDS011;33568;45.286;9.900;2024-01-30T11:02:44;79.72;;;46.78;;
47804;SDS011;33568;45.286;9.900;2024-01-30T11:05:12;75.85;;;47.65;;
47804;SDS011;33568;45.286;9.900;2024-01-30T11:07:41;73.15;;;45.13;;
47804;SDS011;33568;45.286;9.900;2024-01-30T11:12:39;73.43;;;46.65;;
47804;SDS011;33568;45.286;9.900;2024-01-30T11:15:10;89.65;;;47.22;;
47804;SDS011;33568;45.286;9.900;2024-01-30T11:20:16;77.00;;;48.47;;
47804;SDS011;33568;45.286;9.900;2024-01-30T11:22:44;70.65;;;48.17;;
47804;SDS011;33568;45.286;9.900;2024-01-30T11:25:12;68.45;;;46.63;;
47804;SDS011;33568;45.286;9.900;2024-01-30T11:27:43;76.25;;;48.28;;
47804;SDS011;33568;45.286;9.900;2024-01-30T11:30:10;61.00;;;44.42;;
47804;SDS011;33568;45.286;9.900;2024-01-30T11:32:57;63.83;;;45.85;;
47804;SDS011;33568;45.286;9.900;2024-01-30T11:35:32;66.30;;;44.92;;
47804;SDS011;33568;45.286;9.900;2024-01-30T11:37:59;67.10;;;48.35;;
47804;SDS011;33568;45.286;9.900;2024-01-30T11:40:30;70.90;;;44.88;;
47804;SDS011;33568;45.286;9.900;2024-01-30T11:42:59;62.92;;;45.38;;
47804;SDS011;33568;45.286;9.900;2024-01-30T11:45:26;61.60;;;45.00;;
47804;SDS011;33568;45.286;9.900;2024-01-30T11:47:54;75.70;;;48.65;;
47804;SDS011;33568;45.286;9.900;2024-01-30T11:50:21;64.95;;;46.90;;
47804;SDS011;33568;45.286;9.900;2024-01-30T11:52:47;59.72;;;44.45;;
47804;SDS011;33568;45.286;9.900;2024-01-30T11:55:14;62.13;;;47.38;;
47804;SDS011;33568;45.286;9.900;2024-01-30T11:57:41;63.90;;;48.97;;
47804;SDS011;33568;45.286;9.900;2024-01-30T12:00:14;67.03;;;50.80;;
47804;SDS011;33568;45.286;9.900;2024-01-30T12:02:42;63.40;;;46.53;;
47804;SDS011;33568;45.286;9.900;2024-01-30T12:05:09;61.40;;;46.03;;
47804;SDS011;33568;45.286;9.900;2024-01-30T12:07:35;65.68;;;46.95;;
47804;SDS011;33568;45.286;9.900;2024-01-30T12:10:02;64.68;;;47.13;;
47804;SDS011;33568;45.286;9.900;2024-01-30T12:12:29;65.35;;;47.35;;
47804;SDS011;33568;45.286;9.900;2024-01-30T12:14:56;68.88;;;47.35;;
47804;SDS011;33568;45.286;9.900;2024-01-30T12:17:30;68.95;;;49.58;;
47804;SDS011;33568;45.286;9.900;2024-01-30T12:20:09;63.05;;;47.28;;
47804;SDS011;33568;45.286;9.900;2024-01-30T12:22:42;90.95;;;66.32;;
47804;SDS011;33568;45.286;9.900;2024-01-30T12:25:10;76.25;;;49.90;;
47804;SDS011;33568;45.286;9.900;2024-01-30T12:27:38;75.63;;;55.70;;
47804;SDS011;33568;45.286;9.900;2024-01-30T12:30:06;77.18;;;56.15;;
47804;SDS011;33568;45.286;9.900;2024-01-30T12:32:40;79.50;;;54.85;;
47804;SDS011;33568;45.286;9.900;2024-01-30T12:35:11;82.10;;;56.50;;
47804;SDS011;33568;45.286;9.900;2024-01-30T12:37:42;83.32;;;56.17;;
47804;SDS011;33568;45.286;9.900;2024-01-30T12:40:13;84.30;;;60.17;;
47804;SDS011;33568;45.286;9.900;2024-01-30T12:42:40;83.22;;;61.63;;
47804;SDS011;33568;45.286;9.900;2024-01-30T12:45:08;74.85;;;55.17;;
47804;SDS011;33568;45.286;9.900;2024-01-30T12:47:35;77.55;;;53.58;;
47804;SDS011;33568;45.286;9.900;2024-01-30T12:50:02;83.80;;;56.05;;
47804;SDS011;33568;45.286;9.900;2024-01-30T12:52:29;78.88;;;56.83;;
47804;SDS011;33568;45.286;9.900;2024-01-30T12:57:22;83.67;;;57.30;;
47804;SDS011;33568;45.286;9.900;2024-01-30T13:02:15;88.32;;;57.10;;
47804;SDS011;33568;45.286;9.900;2024-01-30T13:04:42;87.28;;;59.42;;
47804;SDS011;33568;45.286;9.900;2024-01-30T13:07:09;81.90;;;55.40;;
47804;SDS011;33568;45.286;9.900;2024-01-30T13:12:02;77.20;;;52.75;;
47804;SDS011;33568;45.286;9.900;2024-01-30T13:14:29;87.43;;;62.17;;
47804;SDS011;33568;45.286;9.900;2024-01-30T13:16:55;81.82;;;56.22;;
47804;SDS011;33568;45.286;9.900;2024-01-30T13:19:22;68.57;;;49.97;;
47804;SDS011;33568;45.286;9.900;2024-01-30T13:21:48;71.68;;;52.70;;
47804;SDS011;33568;45.286;9.900;2024-01-30T13:24:15;82.43;;;56.33;;
47804;SDS011;33568;45.286;9.900;2024-01-30T13:26:42;105.00;;;73.82;;
47804;SDS011;33568;45.286;9.900;2024-01-30T13:29:09;83.05;;;54.83;;
47804;SDS011;33568;45.286;9.900;2024-01-30T13:34:02;80.70;;;55.47;;
47804;SDS011;33568;45.286;9.900;2024-01-30T13:38:55;86.57;;;57.92;;
47804;SDS011;33568;45.286;9.900;2024-01-30T13:41:22;84.97;;;55.95;;
47804;SDS011;33568;45.286;9.900;2024-01-30T13:46:15;80.10;;;52.22;;
47804;SDS011;33568;45.286;9.900;2024-01-30T13:48:41;91.30;;;56.53;;
47804;SDS011;33568;45.286;9.900;2024-01-30T13:51:10;88.30;;;56.03;;
47804;SDS011;33568;45.286;9.900;2024-01-30T13:53:38;84.47;;;54.28;;
47804;SDS011;33568;45.286;9.900;2024-01-30T13:56:05;81.70;;;55.97;;
47804;SDS011;33568;45.286;9.900;2024-01-30T13:58:33;86.63;;;56.33;;
47804;SDS011;33568;45.286;9.900;2024-01-30T14:01:02;95.30;;;57.25;;
47804;SDS011;33568;45.286;9.900;2024-01-30T14:03:29;100.53;;;64.10;;
47804;SDS011;33568;45.286;9.900;2024-01-30T14:08:22;82.38;;;52.97;;
47804;SDS011;33568;45.286;9.900;2024-01-30T14:10:52;86.93;;;56.00;;
47804;SDS011;33568;45.286;9.900;2024-01-30T14:13:18;89.85;;;58.00;;
47804;SDS011;33568;45.286;9.900;2024-01-30T14:15:45;86.47;;;55.25;;
47804;SDS011;33568;45.286;9.900;2024-01-30T14:18:12;92.38;;;58.28;;
47804;SDS011;33568;45.286;9.900;2024-01-30T14:20:39;85.38;;;55.28;;
47804;SDS011;33568;45.286;9.900;2024-01-30T14:23:06;103.38;;;58.45;;
47804;SDS011;33568;45.286;9.900;2024-01-30T14:27:58;91.68;;;55.88;;
47804;SDS011;33568;45.286;9.900;2024-01-30T14:30:25;97.90;;;61.65;;
47804;SDS011;33568;45.286;9.900;2024-01-30T14:32:51;105.72;;;60.60;;
47804;SDS011;33568;45.286;9.900;2024-01-30T14:35:18;100.20;;;61.75;;
47804;SDS011;33568;45.286;9.900;2024-01-30T14:37:45;94.68;;;60.83;;
47804;SDS011;33568;45.286;9.900;2024-01-30T14:40:11;91.25;;;59.17;;
47804;SDS011;33568;45.286;9.900;2024-01-30T14:45:05;98.30;;;58.42;;
47804;SDS011;33568;45.286;9.900;2024-01-30T14:47:32;98.00;;;57.38;;
47804;SDS011;33568;45.286;9.900;2024-01-30T14:50:02;100.82;;;60.30;;
47804;SDS011;33568;45.286;9.900;2024-01-30T14:52:29;96.88;;;57.17;;
47804;SDS011;33568;45.286;9.900;2024-01-30T14:54:57;102.03;;;59.95;;
47804;SDS011;33568;45.286;9.900;2024-01-30T14:57:24;97.85;;;56.78;;
47804;SDS011;33568;45.286;9.900;2024-01-30T14:59:51;105.70;;;62.03;;
47804;SDS011;33568;45.286;9.900;2024-01-30T15:02:17;102.90;;;61.08;;
47804;SDS011;33568;45.286;9.900;2024-01-30T15:04:44;108.93;;;61.78;;
47804;SDS011;33568;45.286;9.900;2024-01-30T15:07:10;100.72;;;62.10;;
47804;SDS011;33568;45.286;9.900;2024-01-30T15:12:03;108.78;;;63.15;;
47804;SDS011;33568;45.286;9.900;2024-01-30T15:14:30;115.63;;;65.90;;
47804;SDS011;33568;45.286;9.900;2024-01-30T15:16:56;118.88;;;67.57;;
47804;SDS011;33568;45.286;9.900;2024-01-30T15:21:49;128.57;;;76.03;;
47804;SDS011;33568;45.286;9.900;2024-01-30T15:24:15;135.68;;;73.65;;
47804;SDS011;33568;45.286;9.900;2024-01-30T15:26:43;125.70;;;72.35;;
47804;SDS011;33568;45.286;9.900;2024-01-30T15:29:10;130.45;;;73.80;;
47804;SDS011;33568;45.286;9.900;2024-01-30T15:31:36;137.77;;;79.88;;
47804;SDS011;33568;45.286;9.900;2024-01-30T15:34:03;143.57;;;80.63;;
47804;SDS011;33568;45.286;9.900;2024-01-30T15:36:49;123.25;;;70.03;;
47804;SDS011;33568;45.286;9.900;2024-01-30T15:39:35;130.60;;;70.80;;
47804;SDS011;33568;45.286;9.900;2024-01-30T15:42:20;125.75;;;69.63;;
47804;SDS011;33568;45.286;9.900;2024-01-30T15:45:05;117.40;;;68.05;;
47804;SDS011;33568;45.286;9.900;2024-01-30T15:47:51;130.38;;;73.03;;
47804;SDS011;33568;45.286;9.900;2024-01-30T15:50:36;138.63;;;78.88;;
47804;SDS011;33568;45.286;9.900;2024-01-30T15:53:22;130.55;;;74.20;;
47804;SDS011;33568;45.286;9.900;2024-01-30T15:56:08;119.20;;;72.22;;
47804;SDS011;33568;45.286;9.900;2024-01-30T15:58:53;129.05;;;72.70;;
47804;SDS011;33568;45.286;9.900;2024-01-30T16:01:39;132.40;;;72.43;;
47804;SDS011;33568;45.286;9.900;2024-01-30T16:04:25;123.30;;;72.25;;
47804;SDS011;33568;45.286;9.900;2024-01-30T16:07:10;120.18;;;69.50;;
47804;SDS011;33568;45.286;9.900;2024-01-30T16:09:56;125.85;;;70.90;;
47804;SDS011;33568;45.286;9.900;2024-01-30T16:12:42;126.72;;;71.50;;
47804;SDS011;33568;45.286;9.900;2024-01-30T16:15:30;122.80;;;68.50;;
47804;SDS011;33568;45.286;9.900;2024-01-30T16:18:16;121.40;;;69.13;;